CW7200 Weather Reports


time (UTC)temp
F
wind
direction
speed
knots
gust
knots
rain 1hr
in
rain 24hr
in
rain mn
in
humidity
%
barometer
mb
20190218035937 28 0 0.0 0.0 0.00 0.00 0.00 86 1023.3
20190218035037 28 0 0.0 0.0 0.00 0.00 0.00 85 1023.4
20190218034137 28 0 0.0 0.0 0.00 0.00 0.00 85 1023.4
20190218033237 28 0 0.0 0.0 0.00 0.00 0.00 85 1023.4
20190218032337 28 0 0.0 0.0 0.00 0.00 0.00 85 1023.4
20190218031437 28 0 0.0 0.0 0.00 0.00 0.00 85 1023.4
20190218030537 29 0 0.0 0.0 0.00 0.00 0.00 86 1023.4
20190218025637 28 0 0.0 0.0 0.00 0.00 0.00 85 1023.4
20190218024737 28 0 0.0 0.0 0.00 0.00 0.00 85 1023.4
20190218023837 29 0 0.0 0.0 0.00 0.00 0.00 85 1023.4
20190218022937 29 0 0.0 0.0 0.00 0.00 0.00 85 1023.4
20190218022037 29 0 0.0 0.0 0.00 0.00 0.00 84 1023.5
20190218021137 29 0 0.0 0.0 0.00 0.00 0.00 84 1023.5
20190218020237 30 0 0.0 0.0 0.00 0.00 0.00 84 1023.6
20190218015338 30 0 0.0 0.0 0.00 0.00 0.00 83 1023.7
20190218014437 30 0 0.0 0.0 0.00 0.00 0.00 84 1023.7
20190218013537 30 0 0.0 0.0 0.00 0.00 0.00 83 1023.8
20190218012637 30 0 0.0 0.0 0.00 0.00 0.00 83 1023.9
20190218011737 30 0 0.0 0.0 0.00 0.00 0.00 83 1024.0
20190218010837 30 0 0.0 0.0 0.00 0.00 0.00 82 1024.0
20190218005937 31 0 0.0 0.0 0.00 0.00 0.00 82 1024.1
20190218005038 31 0 0.0 0.0 0.00 0.00 0.00 81 1024.1
20190218004137 31 0 0.0 0.0 0.00 0.00 0.00 81 1024.1
20190218003237 31 0 0.0 0.0 0.00 0.00 0.00 80 1024.1
20190218002338 32 0 0.0 0.0 0.00 0.00 0.00 79 1024.1
20190218001437 32 0 0.0 0.0 0.00 0.00 0.00 81 1024.1
20190218000537 32 0 0.0 0.0 0.00 0.00 0.00 80 1024.1
20190217235637 32 0 0.0 0.0 0.00 0.00 0.00 79 1024.2
20190217234737 33 0 0.0 0.0 0.00 0.00 0.00 78 1024.1
20190217233837 34 0 0.0 0.0 0.00 0.00 0.00 78 1024.2
20190217232937 34 0 0.0 0.0 0.00 0.00 0.00 79 1024.3
20190217232037 33 0 0.0 0.0 0.00 0.00 0.00 80 1024.3
20190217231137 34 0 0.0 0.0 0.00 0.00 0.00 77 1024.4
20190217230237 34 0 0.0 0.0 0.00 0.00 0.00 77 1024.4
20190217225337 35 337 0.0 2.6 0.00 0.00 0.00 77 1024.5
20190217224437 35 337 0.0 2.6 0.00 0.00 0.00 78 1024.5
20190217223537 35 338 0.0 2.6 0.00 0.00 0.00 79 1024.5
20190217222637 35 0 0.0 0.0 0.00 0.00 0.00 79 1024.5
20190217221737 34 0 0.0 0.0 0.00 0.00 0.00 79 1024.5
20190217220837 35 0 0.0 0.0 0.00 0.00 0.00 79 1024.5
20190217215937 34 347 0.0 2.6 0.00 0.00 0.00 80 1024.6
20190217215037 34 0 0.0 0.0 0.00 0.00 0.00 80 1024.7
20190217214137 34 0 0.0 0.0 0.00 0.00 0.00 80 1024.7
20190217213238 34 0 0.0 0.0 0.00 0.00 0.00 78 1024.8
20190217212337 35 0 0.0 0.0 0.00 0.00 0.00 79 1024.8
20190217211437 35 0 0.0 0.0 0.00 0.00 0.00 77 1024.8
20190217210537 36 0 0.0 0.0 0.00 0.00 0.00 75 1024.8
20190217205637 37 0 0.0 0.0 0.00 0.00 0.00 75 1024.8
20190217204737 37 0 0.0 0.0 0.00 0.00 0.00 74 1024.9
20190217203837 38 0 0.0 0.0 0.00 0.00 0.00 75 1024.9
20190217202938 37 0 0.0 0.0 0.00 0.00 0.00 78 1024.9
20190217202037 36 0 0.0 0.0 0.00 0.00 0.00 76 1024.9
20190217201137 37 340 0.9 3.5 0.00 0.00 0.00 76 1024.9
20190217200237 37 336 0.0 2.6 0.00 0.00 0.00 77 1024.9
20190217195337 37 343 0.0 0.9 0.00 0.00 0.00 77 1024.9
20190217194437 37 0 0.9 0.0 0.00 0.00 0.00 75 1024.9
20190217193537 38 329 0.9 3.5 0.00 0.00 0.00 77 1024.8
20190217192637 37 320 0.0 3.5 0.00 0.00 0.00 78 1024.8
20190217191737 37 0 0.0 0.0 0.00 0.00 0.00 79 1024.8
20190217190838 36 0 0.0 0.0 0.00 0.00 0.00 81 1024.7
20190217185937 36 0 0.0 0.0 0.00 0.00 0.00 81 1024.7
20190217185037 36 0 0.0 0.0 0.00 0.00 0.00 81 1024.7
20190217184137 36 0 0.0 0.0 0.00 0.00 0.00 80 1024.6
20190217183237 36 0 0.0 0.0 0.00 0.00 0.00 82 1024.5
20190217182337 36 0 0.0 0.0 0.00 0.00 0.00 80 1024.6
20190217181437 36 0 0.0 0.0 0.00 0.00 0.00 81 1024.6
20190217180537 36 0 0.0 0.0 0.00 0.00 0.00 79 1024.6
20190217175637 37 0 0.0 0.0 0.00 0.00 0.00 78 1024.5
20190217174738 38 0 0.0 0.0 0.00 0.00 0.00 78 1024.5
20190217173837 38 0 0.0 0.0 0.00 0.00 0.00 78 1024.5
20190217172937 39 0 0.0 0.0 0.00 0.00 0.00 77 1024.5
20190217172037 39 0 0.0 0.0 0.00 0.00 0.00 78 1024.5
20190217171137 40 0 0.0 0.0 0.00 0.00 0.00 76 1024.5
20190217170237 42 0 0.0 0.0 0.00 0.00 0.00 74 1024.4
20190217165337 43 0 0.0 0.0 0.00 0.00 0.00 73 1024.3
20190217164437 44 0 0.0 0.0 0.00 0.00 0.00 73 1024.2
20190217163537 44 0 0.0 0.0 0.00 0.00 0.00 72 1024.2
20190217162637 45 0 0.0 0.0 0.00 0.00 0.00 71 1024.2
20190217161737 46 0 0.0 0.0 0.00 0.00 0.00 70 1024.1
20190217160837 47 0 0.0 0.0 0.00 0.00 0.00 69 1024.1
20190217155937 48 0 0.0 0.0 0.00 0.00 0.00 65 1024.0
20190217155037 49 0 0.0 0.0 0.00 0.00 0.00 62 1024.1
20190217154137 51 0 0.0 0.0 0.00 0.00 0.00 58 1024.1
20190217153237 52 0 0.0 0.0 0.00 0.00 0.00 56 1024.1
20190217152337 53 0 0.0 0.0 0.00 0.00 0.00 53 1024.1
20190217151437 55 0 0.0 0.0 0.00 0.00 0.00 50 1024.2
20190217150537 57 0 0.0 0.0 0.00 0.00 0.00 50 1024.2
20190217145637 58 0 0.0 0.0 0.00 0.00 0.00 47 1024.3
20190217144737 59 0 0.0 0.0 0.00 0.00 0.00 45 1024.3
20190217143837 59 0 0.0 0.0 0.00 0.00 0.00 45 1024.4
20190217142938 59 118 0.0 0.0 0.00 0.00 0.00 48 1024.4
20190217142037 59 110 0.0 2.6 0.00 0.00 0.00 45 1024.4
20190217141137 59 111 0.9 3.5 0.00 0.00 0.00 45 1024.5
20190217140237 59 105 0.9 3.5 0.00 0.00 0.00 45 1024.6
20190217135337 59 111 0.0 3.5 0.00 0.00 0.00 44 1024.6
20190217134437 59 110 0.0 2.6 0.00 0.00 0.00 43 1024.7
20190217133537 59 111 0.0 2.6 0.00 0.00 0.00 42 1024.7
20190217132637 60 93 0.0 2.6 0.00 0.00 0.00 43 1024.8
20190217131737 59 127 0.0 0.0 0.00 0.00 0.00 42 1024.8
20190217130837 59 89 0.0 1.7 0.00 0.00 0.00 41 1024.9
20190217125937 59 164 0.0 0.0 0.00 0.00 0.00 42 1024.9
20190217125037 59 151 0.0 0.9 0.00 0.00 0.00 42 1025.0
20190217124137 59 0 0.0 0.0 0.00 0.00 0.00 44 1025.1
20190217123237 58 0 0.0 0.0 0.00 0.00 0.00 44 1025.2
20190217122338 58 0 0.0 0.0 0.00 0.00 0.00 42 1025.3
20190217121437 58 116 0.0 1.7 0.00 0.00 0.00 44 1025.5
20190217120537 57 96 0.0 2.6 0.00 0.00 0.00 46 1025.6
20190217115637 57 103 0.0 2.6 0.00 0.00 0.00 47 1025.7
20190217114737 57 119 0.0 2.6 0.00 0.00 0.00 47 1025.8
20190217113837 56 91 0.0 3.5 0.00 0.00 0.00 49 1025.9
20190217112937 56 100 0.0 4.3 0.00 0.00 0.00 49 1025.9
20190217112037 56 95 0.0 2.6 0.00 0.00 0.00 47 1026.1
20190217111137 56 0 0.0 0.0 0.00 0.00 0.00 44 1026.3
20190217110237 56 0 0.0 0.0 0.00 0.00 0.00 47 1026.4
20190217105337 55 159 0.0 0.9 0.00 0.00 0.00 47 1026.5
20190217104437 55 159 0.0 0.9 0.00 0.00 0.00 49 1026.6
20190217103538 54 0 0.0 0.0 0.00 0.00 0.00 51 1026.7
20190217102637 54 153 0.0 0.0 0.00 0.00 0.00 51 1026.8
20190217101737 53 181 0.0 0.0 0.00 0.00 0.00 50 1026.9
20190217100838 53 0 0.0 0.0 0.00 0.00 0.00 55 1026.9
20190217095937 51 0 0.0 0.0 0.00 0.00 0.00 55 1027.0
20190217095037 50 0 0.0 0.0 0.00 0.00 0.00 59 1026.9
20190217094137 49 0 0.0 0.0 0.00 0.00 0.00 62 1026.9
20190217093237 48 0 0.0 0.0 0.00 0.00 0.00 63 1026.9
20190217092337 47 0 0.0 0.0 0.00 0.00 0.00 63 1027.0
20190217091437 46 0 0.0 0.0 0.00 0.00 0.00 66 1027.0
20190217090538 45 0 0.0 0.0 0.00 0.00 0.00 67 1027.0
20190217085637 45 0 0.0 0.0 0.00 0.00 0.00 68 1027.0
20190217084737 44 0 0.0 0.0 0.00 0.00 0.00 70 1027.0
20190217083837 44 0 0.0 0.0 0.00 0.00 0.00 68 1027.0
20190217082937 45 287 2.6 5.2 0.00 0.00 0.00 64 1027.0
20190217082037 46 274 4.3 7.8 0.00 0.00 0.00 61 1027.0
20190217081137 45 266 3.5 8.7 0.00 0.00 0.00 59 1027.0
20190217080237 41 254 0.0 6.1 0.00 0.00 0.00 67 1027.0
20190217075337 38 0 0.0 0.0 0.00 0.00 0.00 77 1027.1
20190217074437 36 0 0.0 0.0 0.00 0.00 0.00 80 1027.1
20190217073537 34 0 0.0 0.0 0.00 0.00 0.00 82 1027.2
20190217072637 32 0 0.0 0.0 0.00 0.00 0.00 84 1027.2
20190217071737 30 0 0.0 0.0 0.00 0.00 0.00 84 1027.3
20190217070837 30 0 0.0 0.0 0.00 0.00 0.00 83 1027.3
20190217065937 29 0 0.0 0.0 0.00 0.00 0.00 83 1027.2
20190217065037 29 0 0.0 0.0 0.00 0.00 0.00 83 1027.2
20190217064137 29 0 0.0 0.0 0.00 0.00 0.00 82 1027.1
20190217063237 29 0 0.0 0.0 0.00 0.00 0.00 82 1027.1
20190217062337 29 0 0.0 0.0 0.00 0.00 0.00 81 1026.9
20190217061437 29 0 0.0 0.0 0.00 0.00 0.00 81 1026.9
20190217060538 29 0 0.0 0.0 0.00 0.00 0.00 80 1026.8
20190217055637 30 0 0.0 0.0 0.00 0.00 0.00 79 1026.7
20190217054738 31 0 0.0 0.0 0.00 0.00 0.00 78 1026.7
20190217053837 32 0 0.0 0.0 0.00 0.00 0.00 76 1026.6
20190217052937 33 0 0.0 0.0 0.00 0.00 0.00 75 1026.6
20190217052037 34 0 0.0 0.0 0.00 0.00 0.00 74 1026.6
20190217051137 36 0 0.0 0.0 0.00 0.00 0.00 73 1026.6
20190217050237 36 0 0.0 0.0 0.00 0.00 0.00 72 1026.5
20190217045337 37 0 0.0 0.0 0.00 0.00 0.00 71 1026.5
20190217044437 37 0 0.0 0.0 0.00 0.00 0.00 71 1026.5
20190217043537 37 0 0.0 0.0 0.00 0.00 0.00 71 1026.5
20190217042637 37 0 0.0 0.0 0.00 0.00 0.00 71 1026.5
20190217041738 37 0 0.0 0.0 0.00 0.00 0.00 71 1026.6
20190217040837 37 0 0.0 0.0 0.00 0.00 0.00 71 1026.6